createdAt,value
2022-09-23T00:01:30.946Z,101466.47
2022-09-23T00:04:00.073Z,101469.13
2022-09-23T00:06:31.350Z,101468.97
2022-09-23T00:08:59.649Z,101471.81
2022-09-23T00:11:29.235Z,101475.75
2022-09-23T00:14:00.909Z,101473.75
2022-09-23T00:16:35.356Z,101478.56
2022-09-23T00:19:04.631Z,101477.66
2022-09-23T00:21:32.837Z,101480.56
2022-09-23T00:24:02.195Z,101474.34
2022-09-23T00:26:30.668Z,101469.97
2022-09-23T00:28:58.993Z,101473.03
2022-09-23T00:31:27.829Z,101468.78
2022-09-23T00:33:58.148Z,101472.06
2022-09-23T00:36:28.856Z,101470.34
2022-09-23T00:38:57.296Z,101465.22
2022-09-23T00:41:26.709Z,101462.53
2022-09-23T00:43:59.901Z,101463.69
2022-09-23T00:46:34.799Z,101472.59
2022-09-23T00:49:29.769Z,101464.66
2022-09-23T00:52:12.314Z,101466.88
2022-09-23T00:54:41.605Z,101467.03
2022-09-23T00:57:11.754Z,101461.50
2022-09-23T00:59:40.134Z,101455.28
2022-09-23T01:02:10.078Z,101455.56
2022-09-23T01:04:38.853Z,101451.28
2022-09-23T01:07:07.213Z,101451.13
2022-09-23T01:09:36.295Z,101457.25
2022-09-23T01:12:22.129Z,101444.66
2022-09-23T01:15:17.851Z,101451.88
2022-09-23T01:18:22.198Z,101446.03
2022-09-23T01:21:13.554Z,101442.34
2022-09-23T01:23:53.514Z,101440.38
2022-09-23T01:26:25.079Z,101442.09
2022-09-23T01:29:21.475Z,101441.31
2022-09-23T01:32:13.599Z,101438.47
2022-09-23T01:35:14.073Z,101433.78
2022-09-23T01:37:56.515Z,101432.69
2022-09-23T01:40:42.984Z,101436.97
2022-09-23T01:43:22.794Z,101437.81
2022-09-23T01:45:57.154Z,101432.53
2022-09-23T01:48:36.106Z,101431.25
2022-09-23T01:51:15.034Z,101442.22
2022-09-23T01:54:09.397Z,101440.31
2022-09-23T01:56:44.273Z,101431.66
2022-09-23T01:59:18.713Z,101438.03
2022-09-23T02:01:58.582Z,101427.56
2022-09-23T02:04:46.397Z,101434.03
2022-09-23T02:07:20.735Z,101425.38
2022-09-23T02:10:01.191Z,101435.28
2022-09-23T02:12:34.750Z,101447.03
2022-09-23T02:15:16.719Z,101450.50
2022-09-23T02:18:16.606Z,101456.31
2022-09-23T02:20:45.729Z,101449.91
2022-09-23T02:23:20.730Z,101451.44
2022-09-23T02:26:35.851Z,101447.16
2022-09-23T02:29:27.769Z,101443.25
2022-09-23T02:32:16.412Z,101440.31
2022-09-23T02:34:47.809Z,101440.78
2022-09-23T02:37:19.375Z,101435.41
2022-09-23T02:40:23.673Z,101437.59
2022-09-23T02:42:58.093Z,101424.53
2022-09-23T02:45:26.409Z,101429.41
2022-09-23T02:48:02.769Z,101427.56
2022-09-23T02:50:32.492Z,101431.13
2022-09-23T02:53:01.409Z,101428.53
2022-09-23T02:55:34.210Z,101423.16
2022-09-23T02:58:06.210Z,101429.41
2022-09-23T03:01:06.480Z,101431.13
2022-09-23T03:04:08.089Z,101425.84
2022-09-23T03:06:52.037Z,101426.63
2022-09-23T03:09:33.090Z,101421.50
2022-09-23T03:12:35.009Z,101421.16
2022-09-23T03:15:19.488Z,101410.78
2022-09-23T03:18:04.384Z,101416.41
2022-09-23T03:20:39.853Z,101404.25
2022-09-23T03:23:11.649Z,101409.72
2022-09-23T03:25:45.119Z,101409.72
2022-09-23T03:28:16.492Z,101411.56
2022-09-23T03:30:45.208Z,101411.22
2022-09-23T03:33:17.608Z,101413.66
2022-09-23T03:36:11.929Z,101408.19
2022-09-23T03:38:45.849Z,101407.44
2022-09-23T03:41:18.370Z,101411.72
2022-09-23T03:43:46.888Z,101403.06
2022-09-23T03:46:17.543Z,101402.91
2022-09-23T03:48:46.604Z,101405.00
2022-09-23T03:51:23.172Z,101397.22
2022-09-23T03:53:51.633Z,101399.28
2022-09-23T03:56:19.789Z,101396.84
2022-09-23T03:58:49.589Z,101395.28
2022-09-23T04:01:18.105Z,101398.06
2022-09-23T04:03:46.189Z,101392.97
2022-09-23T04:06:14.393Z,101396.59
2022-09-23T04:08:42.874Z,101396.88
2022-09-23T04:11:11.553Z,101397.84
2022-09-23T04:13:39.834Z,101394.41
2022-09-23T04:16:08.429Z,101390.03
2022-09-23T04:18:37.177Z,101390.16
2022-09-23T04:21:05.667Z,101393.81
2022-09-23T04:23:33.904Z,101394.41
2022-09-23T04:26:02.585Z,101400.63
2022-09-23T04:28:30.865Z,101396.25
2022-09-23T04:30:59.706Z,101398.94
